sensor_id;sensor_type;location;lat;lon;timestamp;pressure;altitude;pressure_sealevel;temperature;humidity
64023;BME280;50264;52.088;5.296;2023-03-31T00:00:51;100274.0;;;10.29;89.64
64023;BME280;50264;52.088;5.296;2023-03-31T00:02:27;100267.0;;;10.14;89.99
64023;BME280;50264;52.088;5.296;2023-03-31T00:04:03;100266.0;;;10.02;89.87
64023;BME280;50264;52.088;5.296;2023-03-31T00:05:39;100259.0;;;9.9;90.39
64023;BME280;50264;52.088;5.296;2023-03-31T00:08:52;100256.0;;;9.83;91.23
64023;BME280;50264;52.088;5.296;2023-03-31T00:10:30;100251.0;;;9.93;93.2
64023;BME280;50264;52.088;5.296;2023-03-31T00:12:07;100246.0;;;10.02;92.18
64023;BME280;50264;52.088;5.296;2023-03-31T00:15:19;100245.0;;;9.98;91.06
64023;BME280;50264;52.088;5.296;2023-03-31T00:16:55;100234.0;;;9.91;92.3
64023;BME280;50264;52.088;5.296;2023-03-31T00:18:32;100235.0;;;10.01;91.79
64023;BME280;50264;52.088;5.296;2023-03-31T00:20:09;100232.0;;;9.88;90.75
64023;BME280;50264;52.088;5.296;2023-03-31T00:23:23;100223.0;;;10.05;91.45
64023;BME280;50264;52.088;5.296;2023-03-31T00:24:59;100219.0;;;10.03;91.68
64023;BME280;50264;52.088;5.296;2023-03-31T00:26:36;100214.0;;;10.06;91.93
64023;BME280;50264;52.088;5.296;2023-03-31T00:29:50;100205.0;;;10.26;93.11
64023;BME280;50264;52.088;5.296;2023-03-31T00:31:26;100202.0;;;10.16;91.55
64023;BME280;50264;52.088;5.296;2023-03-31T00:33:03;100202.0;;;10.32;92.28
64023;BME280;50264;52.088;5.296;2023-03-31T00:36:16;100192.0;;;10.33;92.58
64023;BME280;50264;52.088;5.296;2023-03-31T00:37:53;100189.0;;;10.42;92.13
64023;BME280;50264;52.088;5.296;2023-03-31T00:39:29;100182.0;;;10.32;91.79
64023;BME280;50264;52.088;5.296;2023-03-31T00:41:05;100180.0;;;10.23;91.28
64023;BME280;50264;52.088;5.296;2023-03-31T00:44:20;100176.0;;;10.23;91.69
64023;BME280;50264;52.088;5.296;2023-03-31T00:46:04;100169.0;;;10.19;91.9
64023;BME280;50264;52.088;5.296;2023-03-31T00:47:48;100171.0;;;10.21;91.67
64023;BME280;50264;52.088;5.296;2023-03-31T00:49:28;100163.0;;;10.08;92.07
64023;BME280;50264;52.088;5.296;2023-03-31T00:52:42;100156.0;;;10.05;92.33
64023;BME280;50264;52.088;5.296;2023-03-31T00:54:22;100153.0;;;10.32;93.17
64023;BME280;50264;52.088;5.296;2023-03-31T00:56:06;100148.0;;;10.29;91.98
64023;BME280;50264;52.088;5.296;2023-03-31T00:59:25;100143.0;;;10.35;92.6
64023;BME280;50264;52.088;5.296;2023-03-31T01:01:03;100139.0;;;10.37;92.73
64023;BME280;50264;52.088;5.296;2023-03-31T01:02:39;100136.0;;;10.42;93.24
64023;BME280;50264;52.088;5.296;2023-03-31T01:04:17;100134.0;;;10.49;92.61
64023;BME280;50264;52.088;5.296;2023-03-31T01:07:36;100130.0;;;10.54;93.4
64023;BME280;50264;52.088;5.296;2023-03-31T01:09:17;100116.0;;;10.83;93.43
64023;BME280;50264;52.088;5.296;2023-03-31T01:10:55;100115.0;;;10.89;93.62
64023;BME280;50264;52.088;5.296;2023-03-31T01:12:37;100111.0;;;10.87;93.44
64023;BME280;50264;52.088;5.296;2023-03-31T01:15:51;100110.0;;;10.89;94.26
64023;BME280;50264;52.088;5.296;2023-03-31T01:17:28;100105.0;;;10.9;94.26
64023;BME280;50264;52.088;5.296;2023-03-31T01:19:09;100106.0;;;10.99;94.97
64023;BME280;50264;52.088;5.296;2023-03-31T01:21:17;100102.0;;;11.02;95.41
64023;BME280;50264;52.088;5.296;2023-03-31T01:24:28;100096.0;;;11.03;94.86
64023;BME280;50264;52.088;5.296;2023-03-31T01:28:12;100083.0;;;11.16;94.84
64023;BME280;50264;52.088;5.296;2023-03-31T01:30:19;100080.0;;;11.03;95.21
64023;BME280;50264;52.088;5.296;2023-03-31T01:32:25;100073.0;;;11.15;95.71
64023;BME280;50264;52.088;5.296;2023-03-31T01:35:20;100068.0;;;11.11;96.2
64023;BME280;50264;52.088;5.296;2023-03-31T01:39:01;100060.0;;;11.07;96.49
64023;BME280;50264;52.088;5.296;2023-03-31T01:41:50;100056.0;;;11.16;96.35
64023;BME280;50264;52.088;5.296;2023-03-31T01:45:22;100047.0;;;11.18;96.17
64023;BME280;50264;52.088;5.296;2023-03-31T01:47:08;100044.0;;;11.18;96.83
64023;BME280;50264;52.088;5.296;2023-03-31T01:48:52;100038.0;;;11.14;96.18
64023;BME280;50264;52.088;5.296;2023-03-31T01:50:35;100036.0;;;11.28;96.38
64023;BME280;50264;52.088;5.296;2023-03-31T01:52:21;100030.0;;;11.31;96.2
64023;BME280;50264;52.088;5.296;2023-03-31T01:55:50;100020.0;;;11.41;96.01
64023;BME280;50264;52.088;5.296;2023-03-31T01:57:34;100019.0;;;11.38;96.23
64023;BME280;50264;52.088;5.296;2023-03-31T01:59:15;100017.0;;;11.43;95.91
64023;BME280;50264;52.088;5.296;2023-03-31T02:00:57;100014.0;;;11.47;95.88
64023;BME280;50264;52.088;5.296;2023-03-31T02:02:39;100006.0;;;11.42;95.97
64023;BME280;50264;52.088;5.296;2023-03-31T02:06:01;100000.0;;;11.45;95.97
64023;BME280;50264;52.088;5.296;2023-03-31T02:07:46;99997.0;;;11.41;95.79
64023;BME280;50264;52.088;5.296;2023-03-31T02:09:28;99993.0;;;11.47;95.62
64023;BME280;50264;52.088;5.296;2023-03-31T02:11:09;99991.0;;;11.47;95.66
64023;BME280;50264;52.088;5.296;2023-03-31T02:14:27;99984.0;;;11.45;95.86
64023;BME280;50264;52.088;5.296;2023-03-31T02:16:10;99980.0;;;11.49;95.91
64023;BME280;50264;52.088;5.296;2023-03-31T02:17:51;99981.0;;;11.55;95.33
64023;BME280;50264;52.088;5.296;2023-03-31T02:19:32;99967.0;;;11.63;94.82
64023;BME280;50264;52.088;5.296;2023-03-31T02:22:49;99957.0;;;11.75;94.32
64023;BME280;50264;52.088;5.296;2023-03-31T02:24:29;99952.0;;;11.8;93.96
64023;BME280;50264;52.088;5.296;2023-03-31T02:26:12;99947.0;;;11.69;94.42
64023;BME280;50264;52.088;5.296;2023-03-31T02:27:52;99937.0;;;11.63;94.74
64023;BME280;50264;52.088;5.296;2023-03-31T02:31:22;99934.0;;;11.68;94.65
64023;BME280;50264;52.088;5.296;2023-03-31T02:33:02;99931.0;;;11.62;95.45
64023;BME280;50264;52.088;5.296;2023-03-31T02:34:38;99926.0;;;11.54;96.27
64023;BME280;50264;52.088;5.296;2023-03-31T02:36:14;99925.0;;;11.51;96.99
64023;BME280;50264;52.088;5.296;2023-03-31T02:39:30;99918.0;;;11.56;96.83
64023;BME280;50264;52.088;5.296;2023-03-31T02:41:08;99909.0;;;11.52;97.28
64023;BME280;50264;52.088;5.296;2023-03-31T02:42:45;99908.0;;;11.58;97.13
64023;BME280;50264;52.088;5.296;2023-03-31T02:46:00;99900.0;;;11.54;97.86
64023;BME280;50264;52.088;5.296;2023-03-31T02:47:36;99901.0;;;11.56;97.76
64023;BME280;50264;52.088;5.296;2023-03-31T02:49:13;99887.0;;;11.51;98.2
64023;BME280;50264;52.088;5.296;2023-03-31T02:51:00;99886.0;;;11.56;98.17
64023;BME280;50264;52.088;5.296;2023-03-31T02:53:58;99873.0;;;11.66;97.9
64023;BME280;50264;52.088;5.296;2023-03-31T02:55:47;99868.0;;;11.56;98.32
64023;BME280;50264;52.088;5.296;2023-03-31T02:58:01;99859.0;;;11.52;98.26
64023;BME280;50264;52.088;5.296;2023-03-31T03:00:43;99853.0;;;11.4;98.95
64023;BME280;50264;52.088;5.296;2023-03-31T03:02:35;99847.0;;;11.48;99.0
64023;BME280;50264;52.088;5.296;2023-03-31T03:04:35;99835.0;;;11.37;99.34
64023;BME280;50264;52.088;5.296;2023-03-31T03:06:43;99830.0;;;11.47;99.31
64023;BME280;50264;52.088;5.296;2023-03-31T03:08:33;99826.0;;;11.37;99.34
64023;BME280;50264;52.088;5.296;2023-03-31T03:10:26;99816.0;;;11.45;98.74
64023;BME280;50264;52.088;5.296;2023-03-31T03:12:14;99818.0;;;11.3;99.25
64023;BME280;50264;52.088;5.296;2023-03-31T03:13:59;99808.0;;;11.25;99.84
64023;BME280;50264;52.088;5.296;2023-03-31T03:17:26;99802.0;;;11.28;99.59
64023;BME280;50264;52.088;5.296;2023-03-31T03:19:05;99797.0;;;11.38;99.31
64023;BME280;50264;52.088;5.296;2023-03-31T03:20:42;99802.0;;;11.44;98.59
64023;BME280;50264;52.088;5.296;2023-03-31T03:22:19;99800.0;;;11.55;98.15
64023;BME280;50264;52.088;5.296;2023-03-31T03:25:31;99796.0;;;11.48;98.5
64023;BME280;50264;52.088;5.296;2023-03-31T03:27:07;99789.0;;;11.42;98.54
64023;BME280;50264;52.088;5.296;2023-03-31T03:28:43;99790.0;;;11.42;98.79
64023;BME280;50264;52.088;5.296;2023-03-31T03:31:55;99782.0;;;11.42;98.53
64023;BME280;50264;52.088;5.296;2023-03-31T03:33:31;99780.0;;;11.33;99.08
64023;BME280;50264;52.088;5.296;2023-03-31T03:36:45;99766.0;;;11.24;99.46
64023;BME280;50264;52.088;5.296;2023-03-31T03:39:58;99761.0;;;11.21;99.8
64023;BME280;50264;52.088;5.296;2023-03-31T03:41:34;99748.0;;;11.3;99.33
64023;BME280;50264;52.088;5.296;2023-03-31T03:43:11;99742.0;;;11.33;99.2
64023;BME280;50264;52.088;5.296;2023-03-31T03:46:24;99744.0;;;11.22;99.5
64023;BME280;50264;52.088;5.296;2023-03-31T03:48:00;99741.0;;;11.37;99.39
64023;BME280;50264;52.088;5.296;2023-03-31T03:49:36;99737.0;;;11.25;99.49
64023;BME280;50264;52.088;5.296;2023-03-31T03:52:48;99732.0;;;11.2;99.66
64023;BME280;50264;52.088;5.296;2023-03-31T03:54:24;99727.0;;;11.25;99.49
64023;BME280;50264;52.088;5.296;2023-03-31T03:56:01;99727.0;;;11.22;99.64
64023;BME280;50264;52.088;5.296;2023-03-31T03:59:14;99726.0;;;11.22;100.0
64023;BME280;50264;52.088;5.296;2023-03-31T04:00:50;99719.0;;;11.37;99.03
64023;BME280;50264;52.088;5.296;2023-03-31T04:02:26;99723.0;;;11.27;99.3
64023;BME280;50264;52.088;5.296;2023-03-31T04:04:02;99710.0;;;11.1;100.0
64023;BME280;50264;52.088;5.296;2023-03-31T04:07:14;99702.0;;;11.15;100.0
64023;BME280;50264;52.088;5.296;2023-03-31T04:08:50;99691.0;;;10.98;100.0
64023;BME280;50264;52.088;5.296;2023-03-31T04:10:26;99689.0;;;10.94;100.0
64023;BME280;50264;52.088;5.296;2023-03-31T04:13:39;99684.0;;;10.94;100.0
64023;BME280;50264;52.088;5.296;2023-03-31T04:15:15;99673.0;;;11.01;100.0
64023;BME280;50264;52.088;5.296;2023-03-31T04:16:51;99669.0;;;10.95;100.0
64023;BME280;50264;52.088;5.296;2023-03-31T04:20:06;99665.0;;;10.99;100.0
64023;BME280;50264;52.088;5.296;2023-03-31T04:21:44;99655.0;;;11.02;100.0
64023;BME280;50264;52.088;5.296;2023-03-31T04:23:20;99648.0;;;10.97;100.0
64023;BME280;50264;52.088;5.296;2023-03-31T04:24:56;99637.0;;;10.91;100.0
64023;BME280;50264;52.088;5.296;2023-03-31T04:28:10;99625.0;;;10.9;100.0
64023;BME280;50264;52.088;5.296;2023-03-31T04:29:46;99619.0;;;10.95;100.0
64023;BME280;50264;52.088;5.296;2023-03-31T04:31:22;99614.0;;;10.97;100.0
64023;BME280;50264;52.088;5.296;2023-03-31T04:34:37;99617.0;;;10.87;100.0
64023;BME280;50264;52.088;5.296;2023-03-31T04:36:13;99612.0;;;10.89;100.0
64023;BME280;50264;52.088;5.296;2023-03-31T04:37:51;99605.0;;;10.81;100.0
64023;BME280;50264;52.088;5.296;2023-03-31T04:41:04;99600.0;;;10.95;100.0
64023;BME280;50264;52.088;5.296;2023-03-31T04:42:40;99591.0;;;10.91;100.0
64023;BME280;50264;52.088;5.296;2023-03-31T04:44:16;99589.0;;;10.88;100.0
64023;BME280;50264;52.088;5.296;2023-03-31T04:45:51;99583.0;;;10.85;100.0
64023;BME280;50264;52.088;5.296;2023-03-31T04:49:04;99574.0;;;10.82;100.0
64023;BME280;50264;52.088;5.296;2023-03-31T04:50:40;99565.0;;;10.69;100.0
64023;BME280;50264;52.088;5.296;2023-03-31T04:52:16;99574.0;;;10.82;100.0
64023;BME280;50264;52.088;5.296;2023-03-31T04:55:29;99568.0;;;10.85;100.0
64023;BME280;50264;52.088;5.296;2023-03-31T04:57:05;99566.0;;;10.9;100.0
64023;BME280;50264;52.088;5.296;2023-03-31T04:58:41;99558.0;;;10.93;100.0
64023;BME280;50264;52.088;5.296;2023-03-31T05:01:56;99557.0;;;10.96;100.0
64023;BME280;50264;52.088;5.296;2023-03-31T05:03:32;99549.0;;;10.97;100.0
64023;BME280;50264;52.088;5.296;2023-03-31T05:05:09;99544.0;;;10.92;100.0
64023;BME280;50264;52.088;5.296;2023-03-31T05:06:45;99546.0;;;10.93;100.0
64023;BME280;50264;52.088;5.296;2023-03-31T05:09:57;99539.0;;;10.93;100.0
64023;BME280;50264;52.088;5.296;2023-03-31T05:11:33;99534.0;;;10.94;100.0
64023;BME280;50264;52.088;5.296;2023-03-31T05:13:10;99533.0;;;10.95;100.0
64023;BME280;50264;52.088;5.296;2023-03-31T05:16:22;99524.0;;;10.9;100.0
64023;BME280;50264;52.088;5.296;2023-03-31T05:17:58;99520.0;;;10.81;100.0
64023;BME280;50264;52.088;5.296;2023-03-31T05:19:35;99513.0;;;10.88;100.0
64023;BME280;50264;52.088;5.296;2023-03-31T05:22:50;99516.0;;;11.02;100.0
64023;BME280;50264;52.088;5.296;2023-03-31T05:24:27;99513.0;;;10.98;100.0
64023;BME280;50264;52.088;5.296;2023-03-31T05:26:03;99507.0;;;11.13;100.0
64023;BME280;50264;52.088;5.296;2023-03-31T05:27:40;99501.0;;;11.14;100.0
64023;BME280;50264;52.088;5.296;2023-03-31T05:30:52;99505.0;;;11.08;100.0
64023;BME280;50264;52.088;5.296;2023-03-31T05:32:28;99497.0;;;11.01;100.0
64023;BME280;50264;52.088;5.296;2023-03-31T05:34:05;99496.0;;;10.92;100.0
64023;BME280;50264;52.088;5.296;2023-03-31T05:37:19;99488.0;;;11.14;100.0
64023;BME280;50264;52.088;5.296;2023-03-31T05:38:55;99491.0;;;11.15;100.0
64023;BME280;50264;52.088;5.296;2023-03-31T05:40:31;99489.0;;;11.13;100.0
64023;BME280;50264;52.088;5.296;2023-03-31T05:43:43;99486.0;;;10.97;100.0
64023;BME280;50264;52.088;5.296;2023-03-31T05:45:19;99487.0;;;10.83;100.0
64023;BME280;50264;52.088;5.296;2023-03-31T05:46:55;99482.0;;;10.98;100.0
64023;BME280;50264;52.088;5.296;2023-03-31T05:50:08;99480.0;;;10.98;100.0
64023;BME280;50264;52.088;5.296;2023-03-31T05:51:45;99476.0;;;11.01;100.0
64023;BME280;50264;52.088;5.296;2023-03-31T05:53:22;99470.0;;;11.0;100.0
64023;BME280;50264;52.088;5.296;2023-03-31T05:54:58;99462.0;;;10.95;100.0
64023;BME280;50264;52.088;5.296;2023-03-31T05:59:46;99461.0;;;11.06;100.0
64023;BME280;50264;52.088;5.296;2023-03-31T06:01:22;99460.0;;;10.98;100.0
64023;BME280;50264;52.088;5.296;2023-03-31T06:04:35;99458.0;;;11.03;100.0
64023;BME280;50264;52.088;5.296;2023-03-31T06:06:11;99457.0;;;11.08;100.0
64023;BME280;50264;52.088;5.296;2023-03-31T06:07:48;99457.0;;;11.19;100.0
64023;BME280;50264;52.088;5.296;2023-03-31T06:11:04;99448.0;;;11.31;100.0
64023;BME280;50264;52.088;5.296;2023-03-31T06:12:40;99447.0;;;11.28;99.78
64023;BME280;50264;52.088;5.296;2023-03-31T06:14:16;99442.0;;;11.1;99.42
64023;BME280;50264;52.088;5.296;2023-03-31T06:15:54;99443.0;;;11.11;99.6
64023;BME280;50264;52.088;5.296;2023-03-31T06:19:06;99440.0;;;11.13;99.7
64023;BME280;50264;52.088;5.296;2023-03-31T06:20:43;99444.0;;;11.2;99.44
64023;BME280;50264;52.088;5.296;2023-03-31T06:22:19;99433.0;;;11.18;99.19
64023;BME280;50264;52.088;5.296;2023-03-31T06:25:31;99434.0;;;11.28;99.35
64023;BME280;50264;52.088;5.296;2023-03-31T06:27:07;99437.0;;;11.33;98.14
64023;BME280;50264;52.088;5.296;2023-03-31T06:28:43;99435.0;;;11.3;98.56
64023;BME280;50264;52.088;5.296;2023-03-31T06:31:55;99428.0;;;11.22;97.94
64023;BME280;50264;52.088;5.296;2023-03-31T06:33:31;99430.0;;;11.23;98.28
64023;BME280;50264;52.088;5.296;2023-03-31T06:35:08;99435.0;;;11.33;97.53
64023;BME280;50264;52.088;5.296;2023-03-31T06:36:44;99428.0;;;11.37;96.87
64023;BME280;50264;52.088;5.296;2023-03-31T06:39:56;99425.0;;;11.25;97.84
64023;BME280;50264;52.088;5.296;2023-03-31T06:41:32;99422.0;;;11.2;98.38
64023;BME280;50264;52.088;5.296;2023-03-31T06:43:08;99422.0;;;11.26;97.41
64023;BME280;50264;52.088;5.296;2023-03-31T06:46:20;99419.0;;;11.22;97.02
64023;BME280;50264;52.088;5.296;2023-03-31T06:47:56;99415.0;;;11.18;97.29
64023;BME280;50264;52.088;5.296;2023-03-31T06:49:32;99422.0;;;11.3;97.63
64023;BME280;50264;52.088;5.296;2023-03-31T06:52:46;99424.0;;;11.27;97.75
64023;BME280;50264;52.088;5.296;2023-03-31T06:54:22;99415.0;;;11.27;98.31
64023;BME280;50264;52.088;5.296;2023-03-31T06:55:58;99412.0;;;11.14;99.32
64023;BME280;50264;52.088;5.296;2023-03-31T06:57:35;99411.0;;;11.23;99.06
64023;BME280;50264;52.088;5.296;2023-03-31T07:00:47;99408.0;;;11.33;99.82
64023;BME280;50264;52.088;5.296;2023-03-31T07:02:23;99408.0;;;11.26;97.71
64023;BME280;50264;52.088;5.296;2023-03-31T07:03:59;99405.0;;;11.32;98.81
64023;BME280;50264;52.088;5.296;2023-03-31T07:07:11;99399.0;;;11.33;99.0
64023;BME280;50264;52.088;5.296;2023-03-31T07:08:47;99402.0;;;11.26;99.12
64023;BME280;50264;52.088;5.296;2023-03-31T07:10:25;99400.0;;;11.26;98.31
64023;BME280;50264;52.088;5.296;2023-03-31T07:13:37;99399.0;;;11.32;99.3
64023;BME280;50264;52.088;5.296;2023-03-31T07:15:14;99406.0;;;11.42;99.87
64023;BME280;50264;52.088;5.296;2023-03-31T07:16:51;99409.0;;;11.36;99.28
64023;BME280;50264;52.088;5.296;2023-03-31T07:20:03;99402.0;;;11.33;99.45
64023;BME280;50264;52.088;5.296;2023-03-31T07:21:40;99396.0;;;11.31;99.24
64023;BME280;50264;52.088;5.296;2023-03-31T07:23:16;99397.0;;;11.42;99.98
64023;BME280;50264;52.088;5.296;2023-03-31T07:24:53;99403.0;;;11.36;99.57
64023;BME280;50264;52.088;5.296;2023-03-31T07:28:05;99401.0;;;11.37;99.26
64023;BME280;50264;52.088;5.296;2023-03-31T07:29:40;99389.0;;;11.32;99.07
64023;BME280;50264;52.088;5.296;2023-03-31T07:31:17;99394.0;;;11.23;99.98
64023;BME280;50264;52.088;5.296;2023-03-31T07:34:29;99389.0;;;11.22;100.0
64023;BME280;50264;52.088;5.296;2023-03-31T07:36:06;99386.0;;;11.26;100.0
64023;BME280;50264;52.088;5.296;2023-03-31T07:37:44;99385.0;;;11.32;100.0
64023;BME280;50264;52.088;5.296;2023-03-31T07:40:58;99383.0;;;11.3;100.0
64023;BME280;50264;52.088;5.296;2023-03-31T07:42:35;99377.0;;;11.25;100.0
64023;BME280;50264;52.088;5.296;2023-03-31T07:44:11;99384.0;;;11.31;100.0
64023;BME280;50264;52.088;5.296;2023-03-31T07:45:47;99382.0;;;11.28;100.0
64023;BME280;50264;52.088;5.296;2023-03-31T07:49:00;99385.0;;;11.35;100.0
64023;BME280;50264;52.088;5.296;2023-03-31T07:50:37;99383.0;;;11.42;100.0
64023;BME280;50264;52.088;5.296;2023-03-31T07:52:13;99375.0;;;11.41;100.0
64023;BME280;50264;52.088;5.296;2023-03-31T07:55:25;99376.0;;;11.52;100.0
64023;BME280;50264;52.088;5.296;2023-03-31T07:57:01;99373.0;;;11.62;100.0
64023;BME280;50264;52.088;5.296;2023-03-31T07:58:37;99378.0;;;11.51;100.0
64023;BME280;50264;52.088;5.296;2023-03-31T08:01:51;99369.0;;;11.5;99.98
64023;BME280;50264;52.088;5.296;2023-03-31T08:03:27;99372.0;;;11.36;100.0
64023;BME280;50264;52.088;5.296;2023-03-31T08:05:03;99367.0;;;11.43;100.0
64023;BME280;50264;52.088;5.296;2023-03-31T08:06:40;99365.0;;;11.5;99.82
64023;BME280;50264;52.088;5.296;2023-03-31T08:09:52;99356.0;;;11.59;99.46
64023;BME280;50264;52.088;5.296;2023-03-31T08:11:29;99359.0;;;11.44;100.0
64023;BME280;50264;52.088;5.296;2023-03-31T08:13:05;99355.0;;;11.47;100.0
64023;BME280;50264;52.088;5.296;2023-03-31T08:16:17;99357.0;;;11.46;100.0
64023;BME280;50264;52.088;5.296;2023-03-31T08:17:53;99349.0;;;11.52;100.0
64023;BME280;50264;52.088;5.296;2023-03-31T08:19:29;99339.0;;;11.69;100.0
64023;BME280;50264;52.088;5.296;2023-03-31T08:22:43;99338.0;;;11.67;100.0
64023;BME280;50264;52.088;5.296;2023-03-31T08:24:19;99333.0;;;11.64;100.0
64023;BME280;50264;52.088;5.296;2023-03-31T08:26:06;99332.0;;;11.71;100.0
64023;BME280;50264;52.088;5.296;2023-03-31T08:27:44;99333.0;;;11.71;100.0
64023;BME280;50264;52.088;5.296;2023-03-31T08:31:02;99337.0;;;11.73;100.0
64023;BME280;50264;52.088;5.296;2023-03-31T08:32:39;99330.0;;;11.88;100.0
64023;BME280;50264;52.088;5.296;2023-03-31T08:34:15;99330.0;;;11.83;100.0
64023;BME280;50264;52.088;5.296;2023-03-31T08:37:27;99322.0;;;11.78;100.0
64023;BME280;50264;52.088;5.296;2023-03-31T08:39:04;99322.0;;;11.81;100.0
64023;BME280;50264;52.088;5.296;2023-03-31T08:40:40;99315.0;;;11.72;100.0
64023;BME280;50264;52.088;5.296;2023-03-31T08:42:20;99311.0;;;11.79;100.0
64023;BME280;50264;52.088;5.296;2023-03-31T08:45:42;99316.0;;;11.87;100.0
64023;BME280;50264;52.088;5.296;2023-03-31T08:47:23;99312.0;;;11.98;100.0
64023;BME280;50264;52.088;5.296;2023-03-31T08:49:02;99315.0;;;12.01;99.97
64023;BME280;50264;52.088;5.296;2023-03-31T08:54:11;99312.0;;;12.02;99.77
64023;BME280;50264;52.088;5.296;2023-03-31T08:55:52;99307.0;;;12.06;99.41
64023;BME280;50264;52.088;5.296;2023-03-31T08:57:34;99309.0;;;11.96;99.36
64023;BME280;50264;52.088;5.296;2023-03-31T08:59:20;99302.0;;;11.94;100.0
64023;BME280;50264;52.088;5.296;2023-03-31T09:01:11;99298.0;;;11.94;99.05
64023;BME280;50264;52.088;5.296;2023-03-31T09:05:03;99296.0;;;11.99;100.0
64023;BME280;50264;52.088;5.296;2023-03-31T09:06:52;99297.0;;;11.93;100.0
64023;BME280;50264;52.088;5.296;2023-03-31T09:08:34;99296.0;;;11.95;100.0
64023;BME280;50264;52.088;5.296;2023-03-31T09:10:22;99292.0;;;11.96;100.0
64023;BME280;50264;52.088;5.296;2023-03-31T09:12:09;99285.0;;;12.01;100.0
64023;BME280;50264;52.088;5.296;2023-03-31T09:14:08;99290.0;;;12.03;100.0
64023;BME280;50264;52.088;5.296;2023-03-31T09:15:58;99288.0;;;12.21;100.0
64023;BME280;50264;52.088;5.296;2023-03-31T09:19:30;99295.0;;;12.08;99.64
64023;BME280;50264;52.088;5.296;2023-03-31T09:21:18;99286.0;;;12.36;99.78
64023;BME280;50264;52.088;5.296;2023-03-31T09:23:00;99280.0;;;12.35;100.0
64023;BME280;50264;52.088;5.296;2023-03-31T09:24:46;99284.0;;;12.25;100.0
64023;BME280;50264;52.088;5.296;2023-03-31T09:26:33;99282.0;;;12.39;99.44
64023;BME280;50264;52.088;5.296;2023-03-31T09:29:57;99283.0;;;12.46;100.0
64023;BME280;50264;52.088;5.296;2023-03-31T09:31:37;99280.0;;;12.38;97.56
64023;BME280;50264;52.088;5.296;2023-03-31T09:33:19;99277.0;;;12.39;98.02
64023;BME280;50264;52.088;5.296;2023-03-31T09:35:15;99276.0;;;12.58;96.97
64023;BME280;50264;52.088;5.296;2023-03-31T09:36:53;99270.0;;;12.58;98.14
64023;BME280;50264;52.088;5.296;2023-03-31T09:40:06;99268.0;;;12.57;99.26
64023;BME280;50264;52.088;5.296;2023-03-31T09:41:51;99278.0;;;12.56;97.14
64023;BME280;50264;52.088;5.296;2023-03-31T09:43:29;99277.0;;;12.55;96.91
64023;BME280;50264;52.088;5.296;2023-03-31T09:45:13;99280.0;;;12.53;96.05
64023;BME280;50264;52.088;5.296;2023-03-31T09:48:33;99277.0;;;12.66;96.68
64023;BME280;50264;52.088;5.296;2023-03-31T09:50:10;99276.0;;;12.6;94.92
64023;BME280;50264;52.088;5.296;2023-03-31T09:51:53;99275.0;;;12.57;94.84
64023;BME280;50264;52.088;5.296;2023-03-31T09:53:39;99272.0;;;12.52;93.51
64023;BME280;50264;52.088;5.296;2023-03-31T09:56:57;99280.0;;;12.64;94.62
64023;BME280;50264;52.088;5.296;2023-03-31T09:58:39;99275.0;;;12.73;93.05
64023;BME280;50264;52.088;5.296;2023-03-31T10:00:18;99265.0;;;12.79;95.81
64023;BME280;50264;52.088;5.296;2023-03-31T10:01:58;99264.0;;;12.76;95.4
64023;BME280;50264;52.088;5.296;2023-03-31T10:05:27;99267.0;;;12.81;94.06
64023;BME280;50264;52.088;5.296;2023-03-31T10:07:04;99261.0;;;12.87;95.24
64023;BME280;50264;52.088;5.296;2023-03-31T10:08:41;99256.0;;;13.02;95.93
64023;BME280;50264;52.088;5.296;2023-03-31T10:10:28;99259.0;;;13.05;92.36
64023;BME280;50264;52.088;5.296;2023-03-31T10:13:58;99262.0;;;13.12;91.45
64023;BME280;50264;52.088;5.296;2023-03-31T10:15:36;99250.0;;;13.07;91.01
64023;BME280;50264;52.088;5.296;2023-03-31T10:17:15;99250.0;;;12.97;90.3
64023;BME280;50264;52.088;5.296;2023-03-31T10:18:52;99252.0;;;12.96;87.3
64023;BME280;50264;52.088;5.296;2023-03-31T10:22:14;99244.0;;;13.04;88.54
64023;BME280;50264;52.088;5.296;2023-03-31T10:23:52;99245.0;;;13.17;90.01
64023;BME280;50264;52.088;5.296;2023-03-31T10:25:28;99236.0;;;13.17;88.02
64023;BME280;50264;52.088;5.296;2023-03-31T10:27:06;99233.0;;;13.21;86.6
64023;BME280;50264;52.088;5.296;2023-03-31T10:30:32;99238.0;;;13.25;87.25
64023;BME280;50264;52.088;5.296;2023-03-31T10:32:17;99231.0;;;13.36;88.53
64023;BME280;50264;52.088;5.296;2023-03-31T10:33:57;99237.0;;;13.35;83.71
64023;BME280;50264;52.088;5.296;2023-03-31T10:35:35;99226.0;;;13.39;85.81
64023;BME280;50264;52.088;5.296;2023-03-31T10:38:53;99215.0;;;13.35;84.93
64023;BME280;50264;52.088;5.296;2023-03-31T10:40:31;99214.0;;;13.5;84.62
64023;BME280;50264;52.088;5.296;2023-03-31T10:42:08;99216.0;;;13.58;85.65
64023;BME280;50264;52.088;5.296;2023-03-31T10:43:48;99221.0;;;13.69;82.83
64023;BME280;50264;52.088;5.296;2023-03-31T10:47:08;99222.0;;;13.64;83.11
64023;BME280;50264;52.088;5.296;2023-03-31T10:48:53;99225.0;;;13.6;81.3
64023;BME280;50264;52.088;5.296;2023-03-31T10:50:31;99220.0;;;13.63;82.2
64023;BME280;50264;52.088;5.296;2023-03-31T10:52:16;99230.0;;;13.57;82.1
64023;BME280;50264;52.088;5.296;2023-03-31T10:55:38;99221.0;;;13.52;84.71
64023;BME280;50264;52.088;5.296;2023-03-31T10:58:24;99216.0;;;13.41;84.54
64023;BME280;50264;52.088;5.296;2023-03-31T11:02:04;99214.0;;;13.47;84.66
64023;BME280;50264;52.088;5.296;2023-03-31T11:05:13;99217.0;;;13.26;85.73
64023;BME280;50264;52.088;5.296;2023-03-31T11:06:59;99222.0;;;13.19;85.69
64023;BME280;50264;52.088;5.296;2023-03-31T11:08:50;99220.0;;;13.14;87.82
64023;BME280;50264;52.088;5.296;2023-03-31T11:12:35;99215.0;;;13.11;89.18
64023;BME280;50264;52.088;5.296;2023-03-31T11:14:19;99210.0;;;13.08;90.83
64023;BME280;50264;52.088;5.296;2023-03-31T11:16:10;99208.0;;;13.08;91.27
64023;BME280;50264;52.088;5.296;2023-03-31T11:17:58;99208.0;;;12.98;91.92
64023;BME280;50264;52.088;5.296;2023-03-31T11:19:50;99202.0;;;12.93;90.21
64023;BME280;50264;52.088;5.296;2023-03-31T11:21:37;99211.0;;;12.75;92.2
64023;BME280;50264;52.088;5.296;2023-03-31T11:23:25;99201.0;;;12.67;92.78
64023;BME280;50264;52.088;5.296;2023-03-31T11:27:02;99200.0;;;12.67;95.45
64023;BME280;50264;52.088;5.296;2023-03-31T11:28:56;99200.0;;;12.63;92.35